Wakefield, VA

4:32 PM EDT on May 26, 2017 (GMT -0400)
Wakefield Municipal | | Change Station
Active Advisory: Hydrologic Statement

Elev 112 ft 36.99 °N, 77.00 °W | Updated 38 minutes ago

Partly Cloudy
Partly Cloudy
80 °F
Feels Like 80 °F
N
15
Wind Variable Wind from West
Gusts 21 mph

Today
High -- | Low -- °F
--% Chance of Precip.
Yesterday
High -- | Low -- °F
Precip. -- in
Pressure 29.82 in
Visibility 10.0 miles
Clouds Few 6000 ft
Heat Index 80 °F
Dew Point 53 °F
Humidity 39%
Rainfall 0.00 in
Snow Depth Not available.
5:52 AM 8:18 PM
New Moon, 2% visible
METAR KAKQ 261954Z AUTO 27013G18KT 230V300 10SM FEW060 27/12 A2982 RMK AO2 SLP098 T02670117
Pressure 29.82 in
Visibility 10.0 miles
Clouds Few 6000 ft
Heat Index 80 °F
Dew Point 53 °F
Humidity 39%
Rainfall 0.00 in
Snow Depth Not available.
5:52 AM 8:18 PM
New Moon, 2% visible
METAR KAKQ 261954Z AUTO 27013G18KT 230V300 10SM FEW060 27/12 A2982 RMK AO2 SLP098 T02670117

Get Your Daily Forecast Email!

Thanks for signing up!

Be on the lookout for a verification email in your inbox.

You'll start receiving severe weather alerts in your inbox..

×

10-Day Weather Forecast

Almanac

Astronomy

May. 26, 2017 Rise Set
Actual Time
Civil Twilight
Nautical Twilight
Astronomical Twilight
Moon
Length of Visible Light
Length of Day
Tomorrow will be .
, % of the Moon is Illuminated

Today's Extremes

State Highs State Lows

Community

WunderPhotos

Category 6

Welcome to Category 6. This is the collective home for Weather Underground's featured writeups by Dr. Jeff Masters (right), Bob Henson (left), Chris Burt, and other regular contributors.

Nearby

Air Quality

  Air Quality AQ Index Pollutant
Not available.

Snow Depth

Station Depth Elevation

Earthquake Activity

City Distance Mag. Time & Date
Minimum magnitude displayed is 2.5.

Coastal Water Temperatures

Place Temperature

Stations

Nearby Weather Stations

Station Location Temp. Windchill Dew Point Humidity Wind Precip. Elev Updated Type
                   

Watches & Warnings

Hydrologic Statement
Issued: 11:55 AM EDT May. 26, 2017 – National Weather Service

Forecast information for
Nottoway River near Stony Creek
* at 11:30 am Friday the stage was 8.7 feet.
* No flooding is currently forecast.
* Flood stage is 15.0 feet.



Lat... Lon 3687 7709 3682 7720 3692 7728 3680 7753
      3693 7752 3707 7724